Time;durP1;ratioP1;P1;durP2;ratioP2;P2;SDS_P1;SDS_P2;PMS_P1;PMS_P2;Temp;Humidity;BMP_temperature;BMP_pressure;BME280_temperature;BME280_humidity;BME280_pressure;Samples;Min_cycle;Max_cycle;Signal;HPM_P1;HPM_P2
2021/03/14 00:00:22;;;;;;;;;;;5.90;99.90;;;4.40;72.40;94520.88;10339699;28;2041;-86
2021/03/14 00:05:24;;;;;;;;;;;5.40;99.90;;;4.51;71.90;94511.03;10325387;28;1915;-86
2021/03/14 00:10:25;;;;;;;;;;;5.40;99.90;;;4.43;72.47;94556.78;10363580;28;1825;-85
2021/03/14 00:15:27;;;;;;;;;;;5.40;99.90;;;4.44;72.47;94555.72;10323058;28;1975;-84
2021/03/14 00:20:45;;;;;;;;;;;6.10;99.90;;;4.40;73.00;94560.00;10329105;28;2026;-86
2021/03/14 00:25:46;;;;;;;;;;;5.40;99.90;;;4.20;73.55;94566.88;10334477;28;1891;-85
2021/03/14 00:30:48;;;;;;;;;;;6.00;99.90;;;3.99;75.58;94567.88;10300598;28;1864;-85
2021/03/14 00:35:50;;;;;;;;;;;5.00;99.90;;;3.64;79.88;94572.00;10356803;28;1924;-83
2021/03/14 00:40:52;;;;;;;;;;;4.80;99.90;;;3.32;82.46;94552.72;10332041;28;2060;-84
2021/03/14 00:45:53;;;;;;;;;;;4.40;99.90;;;3.16;83.16;94586.34;10340841;28;1935;-87
2021/03/14 00:51:05;;;;;;;;;;;4.70;99.90;;;3.07;84.01;94587.88;10342909;28;1963;-86
2021/03/14 00:56:06;;;;;;;;;;;6.20;99.90;;;3.00;85.02;94574.84;10323575;28;1900;-85
2021/03/14 01:01:08;;;;;;;;;;;4.10;99.90;;;2.89;85.53;94595.19;10346630;28;1989;-85
2021/03/14 01:06:10;;;;;;;;;;;4.30;99.90;;;2.88;85.51;94595.44;10322254;28;1943;-84
2021/03/14 01:11:12;;;;;;;;;;;3.90;99.90;;;2.79;86.05;94591.66;10320582;28;1943;-85
2021/03/14 01:16:14;;;;;;;;;;;4.00;99.90;;;2.66;86.47;94584.91;10324429;28;2181;-85
2021/03/14 01:21:32;;;;;;;;;;;3.70;99.90;;;2.50;87.70;94599.91;10301714;28;2101;-83
2021/03/14 01:26:33;;;;;;;;;;;4.60;99.90;;;2.46;88.38;94582.09;10301109;28;1833;-87
2021/03/14 01:31:35;;;;;;;;;;;4.10;99.90;;;2.38;89.49;94586.00;10317262;28;1986;-84
2021/03/14 01:36:37;;;;;;;;;;;3.30;99.90;;;2.25;89.58;94573.16;10309778;28;1991;-83
2021/03/14 01:41:39;;;;;;;;;;;5.10;99.90;;;2.04;90.72;94590.72;10324281;28;2118;-86
2021/03/14 01:46:41;;;;;;;;;;;3.10;99.90;;;1.84;91.59;94570.06;10296481;28;2028;-85
2021/03/14 01:51:49;;;;;;;;;;;4.20;99.90;;;1.80;92.74;94574.28;10322924;28;1879;-85
2021/03/14 01:56:51;;;;;;;;;;;3.70;99.90;;;1.82;92.80;94561.56;10330239;28;2209;-84
2021/03/14 02:01:53;;;;;;;;;;;4.30;99.90;;;1.88;92.65;94560.56;10322636;28;2049;-87
2021/03/14 02:06:54;;;;;;;;;;;2.80;99.90;;;1.97;92.85;94580.28;10324186;28;1901;-85
2021/03/14 02:11:56;;;;;;;;;;;2.90;99.90;;;2.04;93.12;94583.56;10292259;28;1920;-86
2021/03/14 02:16:58;;;;;;;;;;;2.90;99.90;;;2.05;92.56;94587.00;10332478;28;1755;-85
2021/03/14 02:22:10;;;;;;;;;;;3.00;99.90;;;2.06;91.88;94592.06;10324666;28;2100;-86
2021/03/14 02:27:12;;;;;;;;;;;3.00;99.90;;;2.10;91.97;94598.47;10307470;28;1793;-85
2021/03/14 02:32:15;;;;;;;;;;;4.10;99.90;;;2.11;91.45;94602.72;10324673;28;1709;-85
2021/03/14 02:37:17;;;;;;;;;;;3.10;99.90;;;2.13;91.96;94597.97;10342538;28;1778;-86
2021/03/14 02:42:18;;;;;;;;;;;4.40;99.90;;;2.13;91.43;94584.69;10333876;28;2264;-85
2021/03/14 02:47:20;;;;;;;;;;;3.10;99.90;;;2.12;90.90;94593.72;10323491;28;1914;-84
2021/03/14 02:52:34;;;;;;;;;;;4.80;99.90;;;2.12;91.39;94601.66;10320644;28;2108;-85
2021/03/14 02:57:36;;;;;;;;;;;3.50;99.90;;;2.20;90.71;94607.56;10350076;28;1966;-84
2021/03/14 03:02:38;;;;;;;;;;;4.60;99.90;;;2.21;90.26;94609.16;10337098;28;2361;-84
2021/03/14 03:07:40;;;;;;;;;;;3.10;99.90;;;2.23;90.22;94609.69;10295345;28;1972;-85
2021/03/14 03:12:42;;;;;;;;;;;4.10;99.90;;;2.30;89.16;94602.38;10294585;28;2116;-85
2021/03/14 03:17:44;;;;;;;;;;;3.20;99.90;;;2.37;89.51;94621.53;10303606;28;2266;-86
2021/03/14 03:22:57;;;;;;;;;;;5.10;99.90;;;2.40;88.98;94621.81;10330498;28;2071;-84
2021/03/14 03:27:58;;;;;;;;;;;4.60;99.90;;;2.36;89.09;94625.25;10299602;28;1748;-86
2021/03/14 03:33:00;;;;;;;;;;;3.30;99.90;;;2.34;89.01;94627.31;10315263;28;1998;-83
2021/03/14 03:38:02;;;;;;;;;;;5.10;99.90;;;2.30;90.13;94627.03;10295396;28;1855;-86
2021/03/14 03:43:07;;;;;;;;;;;3.30;99.90;;;2.26;89.99;94651.66;10312661;28;2607;-85
2021/03/14 03:48:12;;;;;;;;;;;3.30;99.90;;;2.25;90.52;94653.50;10325425;28;1778;-86
2021/03/14 03:53:21;;;;;;;;;;;5.60;99.90;;;2.31;89.85;94662.31;10294090;28;2092;-85
2021/03/14 03:58:23;;;;;;;;;;;3.30;99.90;;;2.31;90.06;94655.16;10303822;28;1655;-86
2021/03/14 04:03:24;;;;;;;;;;;3.30;99.90;;;2.30;89.70;94658.06;10326909;28;1920;-81
2021/03/14 04:08:26;;;;;;;;;;;3.30;99.90;;;2.24;88.63;94674.97;10305219;28;2051;-86
2021/03/14 04:13:28;;;;;;;;;;;3.20;99.90;;;2.28;88.59;94686.66;10301520;28;2023;-84
2021/03/14 04:18:30;;;;;;;;;;;3.30;99.90;;;2.31;88.98;94688.84;10301767;28;2119;-86
2021/03/14 04:23:42;;;;;;;;;;;3.30;99.90;;;2.25;89.13;94700.44;10300876;28;2088;-87
2021/03/14 04:28:44;;;;;;;;;;;3.70;99.90;;;2.26;89.77;94707.34;10301124;28;2002;-86
2021/03/14 04:33:46;;;;;;;;;;;4.10;99.90;;;2.31;88.97;94712.69;10305267;28;2111;-85
2021/03/14 04:38:47;;;;;;;;;;;3.30;99.90;;;2.22;89.41;94724.78;10313541;28;2108;-87
2021/03/14 04:43:49;;;;;;;;;;;1.30;99.90;;;2.16;89.94;94724.72;10317066;28;2016;-84
2021/03/14 04:48:51;;;;;;;;;;;3.20;99.90;;;1.98;90.11;94764.78;10313569;28;1908;-85
2021/03/14 04:54:06;;;;;;;;;;;3.90;99.90;;;1.45;91.24;94813.78;10313547;28;2091;-84
2021/03/14 04:59:08;;;;;;;;;;;2.70;99.90;;;1.05;92.36;94806.75;10305992;28;1994;-86
2021/03/14 05:04:10;;;;;;;;;;;2.20;99.90;;;0.74;93.08;94817.81;10285400;28;2076;-87
2021/03/14 05:09:12;;;;;;;;;;;1.80;99.90;;;0.50;93.84;94820.50;10336735;28;2024;-83
2021/03/14 05:14:14;;;;;;;;;;;2.00;99.90;;;0.50;94.49;94828.44;10348895;28;2006;-83
2021/03/14 05:19:16;;;;;;;;;;;1.50;99.90;;;0.51;94.20;94830.06;10329412;28;1810;-82
2021/03/14 05:24:31;;;;;;;;;;;2.00;99.90;;;0.63;94.48;94842.44;10324420;28;2226;-83
2021/03/14 05:29:35;;;;;;;;;;;1.50;99.90;;;0.68;93.74;94853.13;10364439;28;1817;-86
2021/03/14 05:34:37;;;;;;;;;;;1.50;99.90;;;0.72;93.84;94870.94;10332115;28;1854;-86
2021/03/14 05:39:39;;;;;;;;;;;1.60;99.90;;;0.88;93.90;94885.28;10314884;28;2078;-86
2021/03/14 05:44:41;;;;;;;;;;;1.70;99.90;;;0.84;93.18;94886.78;10347171;28;1977;-82
2021/03/14 05:49:43;;;;;;;;;;;1.80;99.90;;;0.87;93.09;94899.53;10332522;28;2014;-85
2021/03/14 05:54:53;;;;;;;;;;;1.80;99.90;;;0.87;93.57;94907.47;10298930;28;2255;-86
2021/03/14 05:59:55;;;;;;;;;;;1.80;99.90;;;0.84;93.43;94900.03;10328906;28;1970;-84
2021/03/14 06:04:57;;;;;;;;;;;1.80;99.90;;;0.84;93.79;94900.03;10320071;28;1911;-86
2021/03/14 06:09:59;;;;;;;;;;;1.80;99.90;;;0.89;92.86;94896.66;10332207;28;1880;-87
2021/03/14 06:15:01;;;;;;;;;;;1.80;99.90;;;1.07;92.27;94892.00;10304743;28;2041;-82
2021/03/14 06:20:03;;;;;;;;;;;1.90;99.90;;;1.20;92.09;94906.00;10327596;28;1999;-85
2021/03/14 06:25:20;;;;;;;;;;;2.00;99.90;;;1.26;91.91;94883.88;10320873;28;1944;-85
2021/03/14 06:30:22;;;;;;;;;;;2.20;99.90;;;1.38;91.40;94897.88;10326256;28;1892;-85
2021/03/14 06:35:24;;;;;;;;;;;3.00;99.90;;;1.60;91.01;94913.91;10341680;28;2054;-85
2021/03/14 06:40:25;;;;;;;;;;;2.40;99.90;;;1.59;90.98;94929.00;10303670;28;2037;-85
2021/03/14 06:45:27;;;;;;;;;;;4.50;99.90;;;1.39;90.23;94946.34;10339791;28;1784;-85
2021/03/14 06:50:29;;;;;;;;;;;2.40;99.90;;;1.34;89.79;94955.00;10305667;28;2002;-84
2021/03/14 06:55:38;;;;;;;;;;;3.10;99.90;;;1.51;89.56;94955.84;10326638;28;2057;-86
2021/03/14 07:00:40;;;;;;;;;;;2.40;99.90;;;1.76;88.91;94963.44;10306534;28;2134;-84
2021/03/14 07:05:44;;;;;;;;;;;2.60;99.90;;;1.87;89.01;94975.03;10340029;28;1861;-83
2021/03/14 07:10:46;;;;;;;;;;;2.70;99.90;;;1.81;89.89;94983.94;10352044;28;1797;-84
2021/03/14 07:15:47;;;;;;;;;;;2.80;99.90;;;1.69;90.22;94981.34;10324119;28;1927;-85
2021/03/14 07:20:49;;;;;;;;;;;4.70;99.90;;;1.68;90.90;94997.47;10314717;28;2041;-85
2021/03/14 07:26:01;;;;;;;;;;;2.60;99.90;;;1.48;90.96;95016.44;10305468;28;2081;-84
2021/03/14 07:31:03;;;;;;;;;;;3.90;99.90;;;1.67;92.10;95014.41;10294928;28;2027;-85
2021/03/14 07:36:05;;;;;;;;;;;2.50;99.90;;;1.46;91.34;95035.19;10309742;28;2011;-87
2021/03/14 07:41:06;;;;;;;;;;;2.50;99.90;;;1.47;91.26;95047.41;10319780;28;2006;-87
2021/03/14 07:46:08;;;;;;;;;;;2.40;99.90;;;1.46;90.98;95045.78;10320209;28;2085;-83
2021/03/14 07:51:10;;;;;;;;;;;2.40;99.90;;;1.43;90.99;95077.25;10306420;28;2016;-86
2021/03/14 07:56:22;;;;;;;;;;;2.50;99.90;;;1.49;91.08;95093.00;10321939;28;1936;-87
2021/03/14 08:01:24;;;;;;;;;;;2.30;99.90;;;1.20;92.05;95104.53;10326609;28;1922;-86
2021/03/14 08:06:26;;;;;;;;;;;2.20;99.90;;;1.17;91.48;95111.13;10364194;28;1884;-84
2021/03/14 08:11:28;;;;;;;;;;;2.10;99.90;;;1.32;91.90;95108.00;10351732;28;1995;-85
2021/03/14 08:16:30;;;;;;;;;;;3.60;99.90;;;1.38;91.64;95138.03;10343675;28;1874;-87
2021/03/14 08:21:35;;;;;;;;;;;2.20;99.90;;;1.30;91.32;95128.59;10347600;28;1939;-85
2021/03/14 08:26:46;;;;;;;;;;;2.20;99.90;;;1.40;91.74;95150.03;10337758;28;1940;-84
2021/03/14 08:31:48;;;;;;;;;;;2.30;99.90;;;1.51;91.56;95146.53;10347129;28;1952;-85
2021/03/14 08:36:50;;;;;;;;;;;2.40;99.90;;;1.57;91.64;95152.75;10332936;28;1908;-85
2021/03/14 08:41:53;;;;;;;;;;;3.20;99.90;;;1.89;91.75;95143.38;10353776;28;1962;-83
2021/03/14 08:46:55;;;;;;;;;;;2.80;99.90;;;2.07;91.11;95137.09;10344963;28;1922;-84
2021/03/14 08:51:58;;;;;;;;;;;2.80;99.90;;;1.75;91.43;95154.47;10345207;28;1833;-85
2021/03/14 08:57:12;;;;;;;;;;;2.60;99.90;;;1.90;91.44;95142.31;10315413;28;1963;-85
2021/03/14 09:02:14;;;;;;;;;;;2.70;99.90;;;2.38;91.32;95149.09;10341283;28;1905;-85
2021/03/14 09:07:17;;;;;;;;;;;4.20;99.90;;;2.65;90.21;95154.59;10324075;28;2002;-82
2021/03/14 09:12:19;;;;;;;;;;;3.30;99.90;;;2.76;88.06;95154.78;10336266;28;1944;-83
2021/03/14 09:17:22;;;;;;;;;;;5.40;99.90;;;2.75;88.08;95145.22;10317805;28;1953;-85
2021/03/14 09:22:24;;;;;;;;;;;3.50;99.90;;;2.80;84.79;95155.91;10330235;28;1908;-85
2021/03/14 09:27:30;;;;;;;;;;;5.50;99.90;;;2.85;84.29;95162.09;10333607;28;1845;-84
2021/03/14 09:32:32;;;;;;;;;;;3.70;99.90;;;3.06;84.05;95165.13;10332313;28;1884;-81
2021/03/14 09:37:34;;;;;;;;;;;3.80;99.90;;;3.41;83.22;95162.19;10330265;28;1898;-85
2021/03/14 09:42:36;;;;;;;;;;;4.10;99.90;;;3.77;82.10;95156.34;10332335;28;1968;-85
2021/03/14 09:47:38;;;;;;;;;;;4.80;99.90;;;4.06;80.42;95158.81;10334417;28;1270;-83
2021/03/14 09:52:40;;;;;;;;;;;4.80;99.90;;;3.89;80.80;95156.22;10350514;28;1666;-83
2021/03/14 09:57:51;;;;;;;;;;;4.80;99.90;;;3.89;81.11;95168.72;10324907;28;1361;-84
2021/03/14 10:02:53;;;;;;;;;;;5.80;99.90;;;3.98;77.73;95161.91;10339957;28;1894;-84
2021/03/14 10:07:55;;;;;;;;;;;4.90;99.90;;;4.07;78.41;95158.59;10348093;28;1481;-84
2021/03/14 10:12:57;;;;;;;;;;;4.90;99.90;;;3.91;79.70;95158.63;10350551;28;1276;-85
2021/03/14 10:17:58;;;;;;;;;;;5.90;99.90;;;3.61;80.56;95162.47;10339740;28;1518;-83
2021/03/14 10:23:00;;;;;;;;;;;4.60;99.90;;;3.71;81.07;95167.16;10328851;28;1958;-83
2021/03/14 10:28:12;;;;;;;;;;;4.60;99.90;;;4.06;80.48;95177.44;10332094;28;1769;-84
2021/03/14 10:33:14;;;;;;;;;;;4.80;99.90;;;3.94;78.96;95182.84;10343045;28;1500;-83
2021/03/14 10:38:16;;;;;;;;;;;6.00;99.90;;;3.98;79.35;95185.84;10319337;28;1451;-84
2021/03/14 10:43:18;;;;;;;;;;;5.70;99.90;;;4.50;78.10;95188.06;10320211;28;1891;-82
2021/03/14 10:48:20;;;;;;;;;;;5.10;99.90;;;4.58;75.81;95198.25;10332744;28;1222;-84
2021/03/14 10:53:21;;;;;;;;;;;4.40;99.90;;;4.49;74.06;95183.78;10320160;28;3293;-83
2021/03/14 10:58:37;;;;;;;;;;;6.20;99.90;;;4.64;73.80;95186.59;10341174;28;2759;-86
2021/03/14 11:03:39;;;;;;;;;;;5.50;99.90;;;4.72;72.97;95188.84;10328495;28;2179;-83
2021/03/14 11:08:41;;;;;;;;;;;5.50;99.90;;;4.66;73.68;95184.53;10318166;28;1817;-85
2021/03/14 11:13:44;;;;;;;;;;;6.20;99.90;;;4.51;74.87;95202.97;10308609;28;2616;-87
2021/03/14 11:18:49;;;;;;;;;;;5.50;99.90;;;4.79;72.46;95205.44;10323780;28;1250;-87
2021/03/14 11:23:51;;;;;;;;;;;6.40;99.90;;;5.37;73.16;95182.50;10328480;28;1993;-83
2021/03/14 11:29:04;;;;;;;;;;;6.60;99.90;;;5.65;69.13;95173.34;10294726;28;2466;-86
2021/03/14 11:34:06;;;;;;;;;;;6.50;99.90;;;5.88;67.94;95158.81;10321175;28;1579;-85
2021/03/14 11:39:10;;;;;;;;;;;7.80;99.90;;;5.82;63.96;95157.19;10319151;28;1885;-86
2021/03/14 11:44:12;;;;;;;;;;;6.80;99.90;;;5.47;64.41;95167.63;10296404;28;1966;-86
2021/03/14 11:49:14;;;;;;;;;;;6.40;99.90;;;5.72;63.42;95170.44;10319286;28;1655;-85
2021/03/14 11:54:17;;;;;;;;;;;6.60;99.90;;;6.05;62.94;95174.69;10296607;28;1410;-86
2021/03/14 11:59:24;;;;;;;;;;;6.90;99.90;;;6.02;63.58;95177.88;10293840;28;627423;-84
2021/03/14 12:04:26;;;;;;;;;;;7.50;99.90;;;6.13;65.29;95171.53;10327173;28;1986;-86
2021/03/14 12:09:27;;;;;;;;;;;7.80;99.90;;;5.21;69.25;95186.09;10313625;28;1935;-86
2021/03/14 12:14:29;;;;;;;;;;;6.50;99.90;;;4.72;73.43;95177.41;10331086;28;1724;-84
2021/03/14 12:19:31;;;;;;;;;;;7.10;99.90;;;4.83;73.37;95182.53;10318022;28;1992;-86
2021/03/14 12:24:33;;;;;;;;;;;6.00;99.90;;;4.41;70.89;95178.94;10310932;28;2047;-83
2021/03/14 12:29:44;;;;;;;;;;;5.60;99.90;;;4.12;73.05;95186.28;10308115;28;2377;-85
2021/03/14 12:34:46;;;;;;;;;;;5.30;99.90;;;3.79;74.06;95191.44;10321082;28;1980;-85
2021/03/14 12:39:47;;;;;;;;;;;5.00;99.90;;;3.80;74.58;95197.56;10306106;28;1300;-86
2021/03/14 12:44:50;;;;;;;;;;;5.60;99.90;;;4.66;73.71;95189.84;10308822;28;1942;-85
2021/03/14 12:49:55;;;;;;;;;;;5.10;99.90;;;5.09;70.65;95188.09;10303048;28;1785;-86
2021/03/14 12:54:56;;;;;;;;;;;5.60;99.90;;;5.51;68.34;95190.06;10317228;28;1887;-84
2021/03/14 13:00:08;;;;;;;;;;;6.60;99.90;;;5.65;66.58;95191.22;10324040;28;1618;-85
2021/03/14 13:05:10;;;;;;;;;;;6.60;99.90;;;5.70;68.54;95191.25;10322435;28;2353;-84
2021/03/14 13:10:11;;;;;;;;;;;7.30;99.90;;;5.61;66.20;95187.47;10336321;28;1486;-84
2021/03/14 13:15:14;;;;;;;;;;;6.60;99.90;;;5.80;64.91;95196.66;10320806;28;1431;-85
2021/03/14 13:20:17;;;;;;;;;;;6.60;99.90;;;5.88;67.15;95190.03;10337732;28;1549;-85
2021/03/14 13:25:30;;;;;;;;;;;6.50;99.90;;;5.38;65.04;95194.75;10331565;28;1984;-84
2021/03/14 13:30:31;;;;;;;;;;;7.00;99.90;;;5.39;71.37;95201.69;10320618;28;1371;-86
2021/03/14 13:35:33;;;;;;;;;;;6.40;99.90;;;5.21;67.45;95194.06;10303401;28;1479;-85
2021/03/14 13:40:35;;;;;;;;;;;6.70;99.90;;;5.38;66.21;95194.75;10328283;28;1181;-85
2021/03/14 13:45:37;;;;;;;;;;;6.60;99.90;;;5.44;65.62;95192.94;10320598;28;1966;-84
2021/03/14 13:50:39;;;;;;;;;;;7.80;99.90;;;5.85;63.03;95195.88;10324239;28;1902;-83
2021/03/14 13:55:41;;;;;;;;;;;6.80;99.90;;;5.89;61.59;95187.09;10336597;28;2261;-82
2021/03/14 14:00:53;;;;;;;;;;;6.90;99.90;;;6.04;61.57;95205.09;10329791;28;2008;-83
2021/03/14 14:05:55;;;;;;;;;;;6.90;99.90;;;6.07;60.54;95212.59;10333267;28;1931;-86
2021/03/14 14:10:57;;;;;;;;;;;8.00;99.90;;;5.37;64.18;95211.81;10342075;28;1921;-84
2021/03/14 14:16:03;;;;;;;;;;;6.70;99.90;;;4.93;60.89;95195.16;10318396;28;1589;-86
2021/03/14 14:21:05;;;;;;;;;;;6.20;99.90;;;4.62;63.34;95204.69;10343339;28;1930;-83
2021/03/14 14:26:07;;;;;;;;;;;5.80;99.90;;;4.53;68.58;95201.69;10345720;28;1599;-84
2021/03/14 14:31:15;;;;;;;;;;;6.30;99.90;;;4.46;70.33;95205.59;10343144;28;1365;-83
2021/03/14 14:36:17;;;;;;;;;;;5.50;99.90;;;4.63;70.13;95198.31;10328220;28;1760;-85
2021/03/14 14:41:19;;;;;;;;;;;6.90;99.90;;;4.65;68.45;95193.56;10321339;28;1893;-83
2021/03/14 14:46:21;;;;;;;;;;;6.70;99.90;;;4.97;68.63;95200.81;10325096;28;1913;-83
2021/03/14 14:51:23;;;;;;;;;;;5.80;99.90;;;5.33;67.88;95194.72;10323935;28;1842;-85
2021/03/14 14:56:25;;;;;;;;;;;6.00;99.90;;;5.75;67.14;95185.16;10329542;28;1304;-85
2021/03/14 15:01:38;;;;;;;;;;;7.60;99.90;;;5.70;63.87;95178.72;10302670;28;1903;-83
2021/03/14 15:06:40;;;;;;;;;;;6.60;99.90;;;5.84;62.76;95181.72;10331536;28;1644;-83
2021/03/14 15:11:42;;;;;;;;;;;7.50;99.90;;;6.09;61.66;95166.97;10341778;28;1597;-84
2021/03/14 15:16:43;;;;;;;;;;;7.00;99.90;;;6.28;61.94;95172.66;10315438;28;1608;-81
2021/03/14 15:21:45;;;;;;;;;;;7.00;99.90;;;6.31;60.55;95162.25;10323459;28;2412;-84
2021/03/14 15:26:47;;;;;;;;;;;7.90;99.90;;;6.15;63.08;95165.91;10314484;28;1528;-84
2021/03/14 15:32:00;;;;;;;;;;;7.30;99.90;;;5.95;61.46;95169.28;10292447;28;1973;-84
2021/03/14 15:37:02;;;;;;;;;;;7.00;99.90;;;6.00;56.85;95164.00;10303939;28;2026;-83
2021/03/14 15:42:04;;;;;;;;;;;7.30;99.70;;;5.99;53.84;95151.72;10317779;28;2000;-84
2021/03/14 15:47:09;;;;;;;;;;;7.50;94.90;;;5.69;52.64;95157.66;10301858;28;1764;-83
2021/03/14 15:52:11;;;;;;;;;;;6.80;90.90;;;5.13;54.46;95162.56;10286188;28;1958;-82
2021/03/14 15:57:13;;;;;;;;;;;7.10;90.70;;;4.73;55.90;95161.16;10307370;28;2013;-83
2021/03/14 16:02:30;;;;;;;;;;;6.60;91.70;;;4.59;55.01;95162.63;10324394;28;2029;-84
2021/03/14 16:07:32;;;;;;;;;;;6.80;91.50;;;4.59;55.27;95166.09;10320739;28;1990;-83
2021/03/14 16:12:35;;;;;;;;;;;5.80;91.10;;;4.64;55.58;95164.50;10312817;28;2166;-84
2021/03/14 16:17:37;;;;;;;;;;;5.70;91.30;;;4.50;55.04;95164.09;10294081;28;1858;-84
2021/03/14 16:22:39;;;;;;;;;;;7.00;90.90;;;4.34;53.67;95169.28;10309880;28;1875;-84
2021/03/14 16:27:41;;;;;;;;;;;6.00;88.60;;;4.16;54.28;95163.47;10327755;28;2038;-83
2021/03/14 16:32:48;;;;;;;;;;;5.30;88.00;;;4.02;55.35;95177.13;10316782;28;2054;-83
2021/03/14 16:37:51;;;;;;;;;;;5.90;89.10;;;3.87;56.50;95186.75;10339244;28;2002;-83
2021/03/14 16:42:53;;;;;;;;;;;6.10;90.50;;;3.69;57.74;95191.31;10341324;28;2157;-83
2021/03/14 16:47:55;;;;;;;;;;;6.00;91.80;;;3.58;59.58;95210.81;10298450;28;2049;-84
2021/03/14 16:52:57;;;;;;;;;;;4.70;93.40;;;3.44;61.84;95220.19;10313166;28;2130;-86
2021/03/14 16:57:59;;;;;;;;;;;6.30;96.50;;;3.25;65.31;95233.69;10343297;28;2057;-81
2021/03/14 17:03:16;;;;;;;;;;;4.40;99.20;;;3.04;68.01;95249.50;10344436;28;2062;-86
2021/03/14 17:08:18;;;;;;;;;;;5.90;99.90;;;2.76;71.47;95260.97;10339430;28;2950;-82
2021/03/14 17:13:20;;;;;;;;;;;4.20;99.90;;;2.51;76.28;95272.69;10316604;28;3467;-83
2021/03/14 17:18:28;;;;;;;;;;;4.60;99.90;;;2.35;78.75;95287.47;10334165;28;1960;-84
2021/03/14 17:23:34;;;;;;;;;;;3.50;99.90;;;2.14;81.48;95291.53;10319609;28;1995;-85
2021/03/14 17:28:36;;;;;;;;;;;3.70;99.90;;;2.05;82.59;95297.44;10305813;28;2076;-83
2021/03/14 17:33:38;;;;;;;;;;;3.20;99.90;;;1.99;83.56;95303.69;10312011;28;2033;-85
2021/03/14 17:38:40;;;;;;;;;;;3.20;99.90;;;1.96;84.87;95315.53;10318479;28;2037;-84
2021/03/14 17:43:42;;;;;;;;;;;3.00;99.90;;;1.94;85.25;95322.09;10305292;28;2086;-84
2021/03/14 17:48:44;;;;;;;;;;;4.20;99.90;;;1.82;85.92;95324.75;10312979;28;1981;-83
2021/03/14 17:53:45;;;;;;;;;;;2.90;99.90;;;1.87;87.26;95332.81;10301226;28;2046;-84
2021/03/14 17:58:49;;;;;;;;;;;2.90;99.90;;;1.83;88.41;95340.41;10302000;28;2127;-84
2021/03/14 18:03:55;;;;;;;;;;;2.90;99.90;;;1.87;89.07;95349.53;10309717;28;2139;-82
2021/03/14 18:08:58;;;;;;;;;;;2.90;99.90;;;1.87;89.57;95348.72;10320047;28;2061;-83
2021/03/14 18:14:00;;;;;;;;;;;2.90;99.90;;;1.54;89.62;95355.38;10310178;28;2029;-86
2021/03/14 18:19:02;;;;;;;;;;;2.70;99.90;;;1.32;90.55;95357.72;10302140;28;2189;-84
2021/03/14 18:24:04;;;;;;;;;;;2.50;99.90;;;1.18;91.83;95355.47;10323103;28;2143;-84
2021/03/14 18:29:06;;;;;;;;;;;2.30;99.90;;;1.03;92.44;95364.63;10319274;28;2284;-85
2021/03/14 18:34:17;;;;;;;;;;;2.20;99.90;;;1.07;93.53;95352.56;10328867;28;2093;-85
2021/03/14 18:39:19;;;;;;;;;;;2.10;99.90;;;1.11;93.56;95354.75;10317754;28;2165;-84
2021/03/14 18:44:21;;;;;;;;;;;2.10;99.90;;;1.19;93.61;95357.91;10327079;28;2332;-84
2021/03/14 18:49:23;;;;;;;;;;;2.20;99.90;;;1.16;94.15;95358.34;10298578;28;2320;-85
2021/03/14 18:54:27;;;;;;;;;;;2.10;99.90;;;1.22;93.75;95372.53;10310397;28;2047;-83
2021/03/14 18:59:29;;;;;;;;;;;2.20;99.90;;;1.30;94.23;95366.91;10332539;28;1857;-85
2021/03/14 19:04:40;;;;;;;;;;;2.20;99.90;;;1.27;93.63;95378.78;10327336;28;2373;-84
2021/03/14 19:09:46;;;;;;;;;;;2.30;99.90;;;1.37;93.97;95385.38;10345032;28;1974;-84
2021/03/14 19:14:48;;;;;;;;;;;2.30;99.90;;;1.41;93.93;95379.41;10281620;28;2074;-87
2021/03/14 19:19:50;;;;;;;;;;;2.40;99.90;;;1.46;93.76;95384.81;10307696;28;2321;-82
2021/03/14 19:24:52;;;;;;;;;;;2.40;99.90;;;1.43;93.49;95398.50;10315586;28;2267;-85
2021/03/14 19:29:54;;;;;;;;;;;2.40;99.90;;;1.41;93.19;95397.13;10328550;28;1905;-85
2021/03/14 19:35:02;;;;;;;;;;;2.40;99.90;;;1.21;92.53;95402.66;10302303;28;2068;-83
2021/03/14 19:40:04;;;;;;;;;;;2.30;99.90;;;1.08;92.64;95409.78;10290875;28;2025;-84
2021/03/14 19:45:06;;;;;;;;;;;2.20;99.90;;;1.05;92.62;95409.41;10315423;28;1992;-84
2021/03/14 19:50:07;;;;;;;;;;;2.10;99.90;;;1.02;93.18;95415.97;10324097;28;2059;-85
2021/03/14 19:55:09;;;;;;;;;;;2.00;99.90;;;0.94;92.92;95418.09;10307690;28;2018;-85
2021/03/14 20:00:11;;;;;;;;;;;2.00;99.90;;;0.94;92.43;95418.09;10319435;28;2021;-83
2021/03/14 20:05:25;;;;;;;;;;;2.00;99.90;;;0.93;92.73;95419.13;10320039;28;1991;-85
2021/03/14 20:10:27;;;;;;;;;;;1.90;99.90;;;1.03;93.05;95435.31;10311782;28;2010;-83
2021/03/14 20:15:29;;;;;;;;;;;2.00;99.90;;;1.07;93.03;95436.44;10300325;28;2089;-86
2021/03/14 20:20:31;;;;;;;;;;;2.00;99.90;;;1.13;92.97;95440.84;10296809;28;2135;-85
2021/03/14 20:25:35;;;;;;;;;;;2.10;99.90;;;1.18;91.92;95433.06;10281278;28;2024;-87
2021/03/14 20:30:37;;;;;;;;;;;2.20;99.90;;;1.17;92.48;95443.88;10297124;28;2033;-87
2021/03/14 20:35:51;;;;;;;;;;;2.20;99.90;;;1.27;92.61;95449.44;10320713;28;1677;-86
2021/03/14 20:40:53;;;;;;;;;;;2.20;99.90;;;1.34;92.69;95453.66;10296936;28;1587;-85
2021/03/14 20:45:55;;;;;;;;;;;2.30;99.90;;;1.37;92.43;95454.22;10335764;28;1914;-87
2021/03/14 20:50:57;;;;;;;;;;;2.20;99.90;;;1.40;92.39;95459.91;10316575;28;1627;-86
2021/03/14 20:55:58;;;;;;;;;;;2.40;99.90;;;1.44;91.97;95460.22;10312287;28;1193;-85
2021/03/14 21:01:00;;;;;;;;;;;3.50;99.90;;;1.45;92.04;95451.25;10311468;28;1514;-87
2021/03/14 21:06:12;;;;;;;;;;;2.50;99.90;;;1.49;92.18;95453.25;10321271;28;1914;-86
2021/03/14 21:11:15;;;;;;;;;;;2.40;99.90;;;1.47;91.99;95452.66;10315318;28;2174;-87
2021/03/14 21:16:16;;;;;;;;;;;2.50;99.90;;;1.50;91.96;95451.41;10293670;28;2040;-85
2021/03/14 21:21:19;;;;;;;;;;;2.50;99.90;;;1.48;91.74;95461.41;10322804;28;2069;-86
2021/03/14 21:26:20;;;;;;;;;;;4.20;99.90;;;1.51;91.38;95451.16;10308628;28;2364;-86
2021/03/14 21:31:23;;;;;;;;;;;3.40;99.90;;;1.50;91.31;95449.56;10278100;28;2444;-84
2021/03/14 21:36:41;;;;;;;;;;;2.60;99.90;;;1.58;91.42;95443.13;10290934;28;2262;-85
2021/03/14 21:41:42;;;;;;;;;;;2.60;99.90;;;1.65;91.33;95425.28;10287915;28;2300;-84
2021/03/14 21:46:44;;;;;;;;;;;2.60;99.90;;;1.62;91.16;95423.91;10293126;28;2313;-86
2021/03/14 21:51:46;;;;;;;;;;;2.60;99.90;;;1.71;90.92;95426.22;10301019;28;2037;-85
2021/03/14 21:56:48;;;;;;;;;;;4.40;99.90;;;1.68;90.99;95418.75;10288089;28;1938;-84
2021/03/14 22:01:49;;;;;;;;;;;2.70;99.90;;;1.70;91.06;95419.31;10309742;28;1994;-85
2021/03/14 22:06:58;;;;;;;;;;;2.70;99.90;;;1.75;91.33;95416.81;10274915;28;1911;-86
2021/03/14 22:12:00;;;;;;;;;;;3.20;99.90;;;1.75;90.81;95414.97;10306570;28;2048;-86
2021/03/14 22:17:02;;;;;;;;;;;3.90;99.90;;;1.79;90.75;95417.97;10287994;28;2038;-86
2021/03/14 22:22:04;;;;;;;;;;;2.80;99.90;;;1.84;90.67;95402.19;10302428;28;1985;-85
2021/03/14 22:27:06;;;;;;;;;;;2.80;99.90;;;1.75;89.79;95404.34;10326867;28;1873;-84
2021/03/14 22:32:08;;;;;;;;;;;2.80;99.90;;;1.81;90.32;95402.66;10321980;28;2105;-84
2021/03/14 22:37:22;;;;;;;;;;;2.80;99.90;;;1.80;90.39;95404.50;10321155;28;2070;-83
2021/03/14 22:42:24;;;;;;;;;;;3.60;99.90;;;1.77;90.20;95398.81;10319717;28;2009;-85
2021/03/14 22:47:26;;;;;;;;;;;2.80;99.90;;;1.80;90.02;95393.88;10335279;28;1714;-84
2021/03/14 22:52:28;;;;;;;;;;;4.20;99.90;;;1.84;90.44;95388.91;10337539;28;1911;-83
2021/03/14 22:57:30;;;;;;;;;;;2.90;99.90;;;1.82;89.82;95389.16;10334610;28;2066;-84
2021/03/14 23:02:51;;;;;;;;;;;2.90;99.90;;;1.85;89.87;95386.06;10315629;28;2073;-85
2021/03/14 23:07:53;;;;;;;;;;;2.90;99.90;;;1.83;89.39;95379.38;10324511;28;1708;-85
2021/03/14 23:12:55;;;;;;;;;;;2.90;99.90;;;1.78;89.47;95380.06;10285639;28;1894;-85
2021/03/14 23:17:57;;;;;;;;;;;2.80;99.90;;;1.82;90.35;95369.81;10310647;28;2118;-85
2021/03/14 23:22:59;;;;;;;;;;;2.90;99.90;;;1.84;89.79;95370.38;10343603;28;1969;-83
2021/03/14 23:28:00;;;;;;;;;;;4.60;99.90;;;1.82;90.17;95373.25;10291584;28;1975;-84
2021/03/14 23:33:02;;;;;;;;;;;3.40;99.90;;;1.75;89.71;95366.44;10294661;28;1997;-83
2021/03/14 23:38:07;;;;;;;;;;;2.90;99.90;;;1.63;90.56;95359.28;10300069;28;2015;-85
2021/03/14 23:43:09;;;;;;;;;;;2.80;99.90;;;1.60;90.56;95367.69;10289956;28;2417;-84
2021/03/14 23:48:11;;;;;;;;;;;2.70;99.90;;;1.65;90.86;95366.19;10322047;28;1964;-84